createdAt,value
2019-03-23T00:02:12.720Z,90.03
2019-03-23T00:04:39.217Z,92.92
2019-03-23T00:07:05.830Z,91.57
2019-03-23T00:09:32.127Z,92.50
2019-03-23T00:11:58.638Z,89.10
2019-03-23T00:14:25.498Z,89.65
2019-03-23T00:16:51.899Z,90.15
2019-03-23T00:19:18.303Z,86.05
2019-03-23T00:21:44.825Z,83.05
2019-03-23T00:24:11.270Z,80.20
2019-03-23T00:26:37.697Z,77.87
2019-03-23T00:29:04.107Z,83.92
2019-03-23T00:31:30.529Z,82.67
2019-03-23T00:33:56.923Z,81.50
2019-03-23T00:36:23.464Z,82.35
2019-03-23T00:38:49.932Z,81.00
2019-03-23T00:41:16.326Z,78.05
2019-03-23T00:43:42.775Z,74.20
2019-03-23T00:46:09.155Z,72.90
2019-03-23T00:48:35.613Z,70.45
2019-03-23T00:51:02.096Z,68.60
2019-03-23T00:53:28.937Z,76.80
2019-03-23T00:55:55.881Z,78.30
2019-03-23T00:58:22.276Z,74.85
2019-03-23T01:00:48.915Z,77.05
2019-03-23T01:03:15.304Z,76.90
2019-03-23T01:05:41.616Z,72.53
2019-03-23T01:08:08.100Z,72.37
2019-03-23T01:10:34.542Z,68.25
2019-03-23T01:13:01.117Z,71.10
2019-03-23T01:15:27.659Z,69.90
2019-03-23T01:17:54.090Z,71.70
2019-03-23T01:20:20.619Z,71.12
2019-03-23T01:22:47.027Z,72.53
2019-03-23T01:25:13.783Z,69.03
2019-03-23T01:27:40.407Z,67.75
2019-03-23T01:30:13.423Z,68.22
2019-03-23T01:32:40.011Z,65.15
2019-03-23T01:35:07.511Z,65.75
2019-03-23T01:37:33.927Z,68.95
2019-03-23T01:40:00.365Z,70.50
2019-03-23T01:42:26.854Z,70.67
2019-03-23T01:44:53.182Z,72.22
2019-03-23T01:47:19.464Z,71.77
2019-03-23T01:49:46.211Z,73.65
2019-03-23T01:52:12.709Z,69.25
2019-03-23T01:54:39.515Z,67.67
2019-03-23T01:57:06.146Z,67.53
2019-03-23T01:59:32.671Z,70.22
2019-03-23T02:01:59.963Z,69.85
2019-03-23T02:04:26.410Z,70.10
2019-03-23T02:06:52.800Z,69.25
2019-03-23T02:09:19.375Z,65.20
2019-03-23T02:11:45.862Z,62.00
2019-03-23T02:14:12.251Z,52.13
2019-03-23T02:16:38.600Z,49.15
2019-03-23T02:19:05.030Z,44.38
2019-03-23T02:21:31.415Z,42.38
2019-03-23T02:23:58.004Z,42.62
2019-03-23T02:26:24.489Z,48.42
2019-03-23T02:28:50.783Z,54.13
2019-03-23T02:31:17.931Z,60.73
2019-03-23T02:33:44.440Z,63.35
2019-03-23T02:36:10.881Z,58.73
2019-03-23T02:38:37.532Z,55.10
2019-03-23T02:41:04.277Z,57.35
2019-03-23T02:43:30.836Z,58.63
2019-03-23T02:45:57.314Z,59.38
2019-03-23T02:48:24.131Z,61.25
2019-03-23T02:50:50.644Z,56.92
2019-03-23T02:53:17.143Z,57.33
2019-03-23T02:55:43.999Z,61.35
2019-03-23T02:58:10.633Z,63.75
2019-03-23T03:00:37.170Z,55.12
2019-03-23T03:03:04.013Z,49.42
2019-03-23T03:05:30.504Z,48.80
2019-03-23T03:07:57.185Z,43.38
2019-03-23T03:10:39.169Z,42.40
2019-03-23T03:13:05.725Z,43.33
2019-03-23T03:15:32.312Z,41.35
2019-03-23T03:17:58.911Z,43.33
2019-03-23T03:20:25.607Z,38.23
2019-03-23T03:22:52.011Z,34.95
2019-03-23T03:25:18.683Z,33.65
2019-03-23T03:27:45.069Z,32.88
2019-03-23T03:30:12.660Z,32.83
2019-03-23T03:32:39.183Z,34.10
2019-03-23T03:35:06.332Z,35.58
2019-03-23T03:37:32.711Z,35.43
2019-03-23T03:39:59.122Z,37.53
2019-03-23T03:42:25.781Z,37.40
2019-03-23T03:44:52.200Z,36.73
2019-03-23T03:47:18.726Z,36.08
2019-03-23T03:49:45.081Z,35.92
2019-03-23T03:52:11.523Z,35.48
2019-03-23T03:54:37.963Z,37.40
2019-03-23T03:57:04.543Z,37.80
2019-03-23T03:59:31.528Z,38.63
2019-03-23T04:01:57.919Z,41.33
2019-03-23T04:04:24.419Z,40.70
2019-03-23T04:06:51.083Z,41.35
2019-03-23T04:09:17.547Z,38.60
2019-03-23T04:11:44.158Z,38.33
2019-03-23T04:14:10.455Z,40.20
2019-03-23T04:16:37.220Z,38.60
2019-03-23T04:19:03.639Z,37.78
2019-03-23T04:21:30.206Z,36.75
2019-03-23T04:23:58.293Z,38.98
2019-03-23T04:26:24.751Z,40.78
2019-03-23T04:28:51.139Z,39.80
2019-03-23T04:31:17.717Z,38.88
2019-03-23T04:33:44.150Z,39.60
2019-03-23T04:36:10.547Z,38.23
2019-03-23T04:38:37.119Z,36.75
2019-03-23T04:41:03.634Z,34.85
2019-03-23T04:43:30.447Z,35.85
2019-03-23T04:45:56.838Z,36.30
2019-03-23T04:48:23.469Z,35.05
2019-03-23T04:50:50.201Z,34.78
2019-03-23T04:53:16.835Z,37.40
2019-03-23T04:55:43.219Z,40.88
2019-03-23T04:58:09.746Z,36.35
2019-03-23T05:00:36.045Z,36.00
2019-03-23T05:03:02.797Z,38.70
2019-03-23T05:05:29.281Z,34.05
2019-03-23T05:07:55.682Z,33.63
2019-03-23T05:10:22.109Z,33.35
2019-03-23T05:12:48.883Z,34.38
2019-03-23T05:15:15.630Z,34.98
2019-03-23T05:17:42.110Z,36.13
2019-03-23T05:20:12.084Z,36.77
2019-03-23T05:22:38.463Z,37.75
2019-03-23T05:25:09.079Z,37.15
2019-03-23T05:27:35.794Z,36.03
2019-03-23T05:30:06.035Z,35.80
2019-03-23T05:32:32.923Z,33.33
2019-03-23T05:35:00.279Z,36.25
2019-03-23T05:37:27.011Z,37.30
2019-03-23T05:39:53.446Z,36.80
2019-03-23T05:42:19.777Z,34.92
2019-03-23T05:44:46.178Z,36.10
2019-03-23T05:47:12.703Z,38.40
2019-03-23T05:49:39.141Z,40.40
2019-03-23T05:52:05.874Z,37.50
2019-03-23T05:54:32.256Z,36.15
2019-03-23T05:56:58.785Z,36.25
2019-03-23T05:59:25.079Z,39.58
2019-03-23T06:01:51.710Z,40.38
2019-03-23T06:04:18.359Z,37.95
2019-03-23T06:06:45.214Z,36.88
2019-03-23T06:09:11.912Z,33.25
2019-03-23T06:11:38.463Z,34.80
2019-03-23T06:14:05.002Z,31.97
2019-03-23T06:16:31.626Z,30.40
2019-03-23T06:18:58.433Z,30.08
2019-03-23T06:21:24.851Z,28.23
2019-03-23T06:23:51.271Z,26.48
2019-03-23T06:26:17.811Z,27.35
2019-03-23T06:28:44.115Z,23.35
2019-03-23T06:31:10.749Z,19.92
2019-03-23T06:33:37.271Z,19.02
2019-03-23T06:36:03.820Z,21.68
2019-03-23T06:38:30.558Z,21.15
2019-03-23T06:40:57.067Z,23.12
2019-03-23T06:43:23.526Z,23.67
2019-03-23T06:45:50.451Z,24.47
2019-03-23T06:48:16.999Z,27.00
2019-03-23T06:50:43.407Z,34.88
2019-03-23T06:53:09.915Z,30.37
2019-03-23T06:55:36.237Z,28.73
2019-03-23T06:58:03.170Z,31.25
2019-03-23T07:00:29.711Z,30.52
2019-03-23T07:02:56.096Z,30.88
2019-03-23T07:05:22.743Z,30.05
2019-03-23T07:07:49.229Z,29.63
2019-03-23T07:10:15.909Z,28.40
2019-03-23T07:12:42.426Z,28.35
2019-03-23T07:15:19.484Z,28.67
2019-03-23T07:17:39.654Z,28.05
2019-03-23T07:20:10.486Z,28.30
2019-03-23T07:22:37.275Z,26.60
2019-03-23T07:25:09.887Z,26.90
2019-03-23T07:27:36.375Z,26.37
2019-03-23T07:30:15.073Z,26.05
2019-03-23T07:32:41.561Z,29.15
2019-03-23T07:35:08.703Z,27.93
2019-03-23T07:37:35.048Z,28.75
2019-03-23T07:40:01.507Z,27.93
2019-03-23T07:42:28.458Z,27.32
2019-03-23T07:44:54.942Z,28.05
2019-03-23T07:47:21.502Z,24.92
2019-03-23T07:49:48.027Z,24.00
2019-03-23T07:52:14.532Z,24.15
2019-03-23T07:54:41.098Z,23.15
2019-03-23T07:57:09.339Z,25.05
2019-03-23T07:59:35.881Z,23.47
2019-03-23T08:02:02.343Z,24.45
2019-03-23T08:04:28.954Z,23.98
2019-03-23T08:06:55.323Z,22.10
2019-03-23T08:09:23.560Z,23.80
2019-03-23T08:11:50.098Z,23.75
2019-03-23T08:14:16.384Z,28.30
2019-03-23T08:16:42.758Z,27.42
2019-03-23T08:19:09.066Z,27.67
2019-03-23T08:21:35.676Z,27.00
2019-03-23T08:24:04.923Z,28.62
2019-03-23T08:26:31.319Z,28.40
2019-03-23T08:28:57.741Z,28.35
2019-03-23T08:31:24.351Z,29.18
2019-03-23T08:33:52.088Z,29.40
2019-03-23T08:36:18.699Z,29.07
2019-03-23T08:38:45.196Z,29.85
2019-03-23T08:41:11.775Z,29.67
2019-03-23T08:43:38.471Z,30.10
2019-03-23T08:46:05.194Z,29.15
2019-03-23T08:48:31.509Z,30.02
2019-03-23T08:50:57.847Z,29.25
2019-03-23T08:53:24.238Z,29.40
2019-03-23T08:55:50.875Z,30.43
2019-03-23T08:58:27.458Z,29.95
2019-03-23T09:00:55.085Z,31.02
2019-03-23T09:03:21.478Z,30.65
2019-03-23T09:05:47.892Z,30.10
2019-03-23T09:08:14.334Z,32.35
2019-03-23T09:10:40.673Z,30.68
2019-03-23T09:13:08.490Z,32.03
2019-03-23T09:15:34.906Z,30.90
2019-03-23T09:18:01.683Z,29.57
2019-03-23T09:20:29.526Z,31.12
2019-03-23T09:22:56.113Z,31.90
2019-03-23T09:25:22.734Z,32.70
2019-03-23T09:27:49.155Z,32.85
2019-03-23T09:30:15.669Z,32.30
2019-03-23T09:32:42.244Z,30.95
2019-03-23T09:35:09.013Z,29.65
2019-03-23T09:37:38.170Z,31.42
2019-03-23T09:40:10.786Z,26.62
2019-03-23T09:42:33.845Z,27.20
2019-03-23T09:45:00.424Z,30.60
2019-03-23T09:47:26.823Z,26.25
2019-03-23T09:49:53.223Z,22.45
2019-03-23T09:52:19.631Z,22.00
2019-03-23T09:54:46.538Z,19.00
2019-03-23T09:57:12.963Z,8.03
2019-03-23T09:59:39.362Z,13.80
2019-03-23T10:02:05.801Z,9.53
2019-03-23T10:04:32.095Z,9.70
2019-03-23T10:06:58.901Z,11.48
2019-03-23T10:09:25.297Z,14.35
2019-03-23T10:11:52.425Z,14.25
2019-03-23T10:14:18.879Z,12.45
2019-03-23T10:16:45.348Z,10.32
2019-03-23T10:19:11.771Z,8.95
2019-03-23T10:21:38.320Z,9.80
2019-03-23T10:24:04.819Z,10.95
2019-03-23T10:26:31.229Z,10.80
2019-03-23T10:28:57.776Z,13.32
2019-03-23T10:31:24.366Z,13.88
2019-03-23T10:33:50.852Z,14.23
2019-03-23T10:36:17.286Z,81.15
2019-03-23T10:38:43.689Z,11.80
2019-03-23T10:41:10.003Z,12.65
2019-03-23T10:43:36.462Z,8.80
2019-03-23T10:46:03.354Z,8.63
2019-03-23T10:48:30.041Z,9.15
2019-03-23T10:50:56.639Z,8.78
2019-03-23T10:53:23.507Z,8.03
2019-03-23T10:55:50.075Z,7.90
2019-03-23T10:58:16.470Z,6.70
2019-03-23T11:00:43.013Z,7.58
2019-03-23T11:11:15.853Z,10.10
2019-03-23T11:13:42.458Z,10.72
2019-03-23T11:16:08.993Z,10.65
2019-03-23T11:18:35.432Z,11.18
2019-03-23T11:21:01.895Z,12.33
2019-03-23T11:23:28.330Z,12.03
2019-03-23T11:25:54.678Z,12.90
2019-03-23T11:28:21.368Z,15.48
2019-03-23T11:30:47.817Z,16.12
2019-03-23T11:33:14.155Z,16.37
2019-03-23T11:35:40.704Z,16.57
2019-03-23T11:38:07.117Z,19.23
2019-03-23T11:40:33.561Z,22.73
2019-03-23T11:43:00.063Z,20.55
2019-03-23T11:45:27.315Z,21.45
2019-03-23T11:47:53.663Z,18.00
2019-03-23T11:50:20.121Z,18.77
2019-03-23T11:52:47.164Z,19.95
2019-03-23T11:55:13.830Z,18.98
2019-03-23T11:57:40.352Z,20.85
2019-03-23T12:00:13.414Z,21.82
2019-03-23T12:02:40.230Z,23.27
2019-03-23T12:05:07.491Z,21.77
2019-03-23T12:07:33.920Z,26.23
2019-03-23T12:10:00.404Z,30.68
2019-03-23T12:12:26.718Z,26.33
2019-03-23T12:14:53.316Z,26.25
2019-03-23T12:17:19.711Z,25.82
2019-03-23T12:19:46.007Z,25.17
2019-03-23T12:22:12.718Z,24.07
2019-03-23T12:24:39.312Z,22.82
2019-03-23T12:35:50.275Z,26.00
2019-03-23T12:38:17.417Z,23.00
2019-03-23T12:40:43.720Z,23.52
2019-03-23T12:43:10.134Z,21.45
2019-03-23T12:45:36.418Z,21.55
2019-03-23T12:48:03.069Z,22.67
2019-03-23T12:50:29.467Z,21.80
2019-03-23T12:52:57.461Z,21.40
2019-03-23T12:55:24.227Z,21.20
2019-03-23T12:57:50.659Z,22.48
2019-03-23T13:00:17.387Z,20.10
2019-03-23T13:02:43.954Z,22.32
2019-03-23T13:05:10.555Z,20.37
2019-03-23T13:07:37.051Z,23.98
2019-03-23T13:10:08.191Z,24.70
2019-03-23T13:12:34.690Z,27.52
2019-03-23T13:15:01.204Z,25.05
2019-03-23T13:17:27.761Z,22.82
2019-03-23T13:19:54.062Z,22.80
2019-03-23T13:22:20.459Z,22.13
2019-03-23T13:24:47.228Z,42.13
2019-03-23T13:27:13.510Z,33.10
2019-03-23T13:29:39.953Z,28.70
2019-03-23T13:32:06.433Z,51.90
2019-03-23T13:34:32.742Z,23.57
2019-03-23T13:36:59.215Z,21.02
2019-03-23T13:39:25.679Z,24.23
2019-03-23T13:41:51.966Z,60.50
2019-03-23T13:44:18.736Z,16.27
2019-03-23T13:46:45.337Z,15.23
2019-03-23T13:49:12.721Z,67.03
2019-03-23T13:51:39.251Z,88.75
2019-03-23T13:54:05.968Z,32.98
2019-03-23T13:56:32.412Z,43.08
2019-03-23T13:58:58.837Z,30.45
2019-03-23T14:01:25.519Z,41.48
2019-03-23T14:03:52.238Z,23.62
2019-03-23T14:06:18.572Z,40.75
2019-03-23T14:08:44.975Z,30.25
2019-03-23T14:11:11.707Z,52.27
2019-03-23T14:13:37.990Z,18.82
2019-03-23T14:16:04.405Z,15.15
2019-03-23T14:18:30.840Z,63.40
2019-03-23T14:20:57.155Z,48.78
2019-03-23T14:23:23.675Z,58.55
2019-03-23T14:25:50.162Z,100.27
2019-03-23T14:28:16.453Z,221.55
2019-03-23T14:30:43.279Z,355.40
2019-03-23T14:33:09.685Z,350.95
2019-03-23T14:35:36.151Z,82.17
2019-03-23T14:38:02.644Z,60.00
2019-03-23T14:40:29.302Z,404.62
2019-03-23T14:42:55.634Z,48.92
2019-03-23T14:45:22.187Z,77.87
2019-03-23T14:47:49.132Z,179.50
2019-03-23T14:50:15.527Z,296.50
2019-03-23T14:52:41.992Z,45.15
2019-03-23T14:55:08.693Z,156.65
2019-03-23T14:57:35.098Z,109.22
2019-03-23T15:00:03.034Z,181.67
2019-03-23T15:02:29.457Z,47.27
2019-03-23T15:04:55.846Z,147.57
2019-03-23T15:07:22.276Z,54.42
2019-03-23T15:09:48.562Z,73.62
2019-03-23T15:12:15.485Z,195.38
2019-03-23T15:14:42.011Z,207.03
2019-03-23T15:17:08.451Z,63.50
2019-03-23T15:19:34.899Z,343.02
2019-03-23T15:22:01.204Z,490.12
2019-03-23T15:24:28.189Z,94.35
2019-03-23T15:26:54.725Z,147.57
2019-03-23T15:29:21.120Z,88.25
2019-03-23T15:31:47.539Z,69.55
2019-03-23T15:34:13.859Z,45.48
2019-03-23T15:36:40.238Z,63.28
2019-03-23T15:39:07.173Z,45.60
2019-03-23T15:41:34.178Z,76.02
2019-03-23T15:44:00.614Z,43.08
2019-03-23T15:46:27.210Z,30.12
2019-03-23T15:48:53.606Z,31.40
2019-03-23T15:51:20.076Z,34.00
2019-03-23T15:53:46.473Z,43.75
2019-03-23T15:56:12.907Z,33.23
2019-03-23T15:58:39.691Z,51.37
2019-03-23T16:01:06.289Z,35.78
2019-03-23T16:03:32.591Z,35.85
2019-03-23T16:05:59.342Z,28.98
2019-03-23T16:08:25.932Z,39.13
2019-03-23T16:10:52.368Z,35.95
2019-03-23T16:13:18.757Z,32.33
2019-03-23T16:15:45.059Z,28.10
2019-03-23T16:18:11.739Z,32.33
2019-03-23T16:20:38.044Z,35.65
2019-03-23T16:23:04.377Z,33.35
2019-03-23T16:25:30.699Z,31.90
2019-03-23T16:27:57.037Z,36.13
2019-03-23T16:30:30.945Z,33.02
2019-03-23T16:32:57.456Z,41.90
2019-03-23T16:35:23.825Z,39.78
2019-03-23T16:37:50.258Z,40.40
2019-03-23T16:40:16.615Z,51.35
2019-03-23T16:42:45.449Z,70.10
2019-03-23T16:45:11.746Z,83.78
2019-03-23T16:47:38.073Z,91.60
2019-03-23T16:50:06.022Z,140.57
2019-03-23T16:52:32.321Z,143.52
2019-03-23T16:54:58.901Z,142.35
2019-03-23T16:57:25.287Z,136.15
2019-03-23T16:59:51.751Z,126.00
2019-03-23T17:02:18.142Z,116.67
2019-03-23T17:04:44.465Z,123.85
2019-03-23T17:07:10.795Z,96.92
2019-03-23T17:09:37.104Z,84.85
2019-03-23T17:12:03.736Z,82.50
2019-03-23T17:14:30.127Z,79.37
2019-03-23T17:16:56.702Z,83.45
2019-03-23T17:26:45.261Z,156.67
2019-03-23T17:29:12.143Z,257.92
2019-03-23T17:31:38.736Z,254.15
2019-03-23T17:34:05.238Z,213.57
2019-03-23T17:36:31.641Z,274.37
2019-03-23T17:38:57.963Z,235.25
2019-03-23T17:41:24.715Z,248.85
2019-03-23T17:43:51.174Z,255.10
2019-03-23T17:46:18.122Z,235.75
2019-03-23T17:48:44.413Z,164.75
2019-03-23T17:51:10.739Z,207.75
2019-03-23T17:53:37.169Z,208.00
2019-03-23T17:56:03.486Z,149.55
2019-03-23T17:58:29.935Z,131.72
2019-03-23T18:00:56.221Z,116.90
2019-03-23T18:03:22.709Z,87.35
2019-03-23T18:05:49.098Z,117.17
2019-03-23T18:08:15.719Z,89.52
2019-03-23T18:10:42.003Z,178.25
2019-03-23T18:13:16.168Z,183.80
2019-03-23T18:15:37.135Z,210.45
2019-03-23T18:18:03.819Z,199.80
2019-03-23T18:20:30.406Z,145.32
2019-03-23T18:22:56.906Z,60.52
2019-03-23T18:25:23.357Z,36.68
2019-03-23T18:27:49.809Z,42.30
2019-03-23T18:30:39.629Z,46.20
2019-03-23T18:33:06.475Z,56.20
2019-03-23T18:35:32.871Z,81.30
2019-03-23T18:38:00.837Z,94.10
2019-03-23T18:40:27.127Z,95.00
2019-03-23T18:42:53.683Z,79.15
2019-03-23T18:45:20.086Z,67.55
2019-03-23T18:47:47.073Z,72.58
2019-03-23T18:50:13.496Z,84.47
2019-03-23T18:52:39.817Z,94.05
2019-03-23T18:55:06.677Z,93.95
2019-03-23T18:57:33.072Z,91.67
2019-03-23T18:59:59.418Z,96.95
2019-03-23T19:02:25.812Z,130.78
2019-03-23T19:04:52.159Z,142.05
2019-03-23T19:07:18.573Z,147.90
2019-03-23T19:09:45.208Z,152.20
2019-03-23T19:12:11.636Z,157.32
2019-03-23T19:14:38.194Z,160.52
2019-03-23T19:17:04.668Z,151.75
2019-03-23T19:19:31.104Z,146.30
2019-03-23T19:21:57.609Z,152.27
2019-03-23T19:24:24.196Z,152.75
2019-03-23T19:26:50.514Z,155.37
2019-03-23T19:29:17.204Z,155.12
2019-03-23T19:31:43.788Z,146.10
2019-03-23T19:34:10.426Z,145.32
2019-03-23T19:36:36.830Z,146.57
2019-03-23T19:39:06.571Z,147.93
2019-03-23T19:41:33.210Z,141.37
2019-03-23T19:43:59.662Z,135.70
2019-03-23T19:46:26.279Z,135.68
2019-03-23T19:48:53.632Z,130.97
2019-03-23T19:51:20.084Z,134.30
2019-03-23T19:53:46.527Z,127.85
2019-03-23T19:56:13.103Z,121.02
2019-03-23T19:58:39.445Z,114.45
2019-03-23T20:01:05.740Z,125.27
2019-03-23T20:03:32.117Z,119.85
2019-03-23T20:05:58.628Z,118.15
2019-03-23T20:08:25.689Z,121.17
2019-03-23T20:10:52.618Z,110.78
2019-03-23T20:13:18.933Z,111.55
2019-03-23T20:15:45.235Z,109.45
2019-03-23T20:18:11.676Z,110.42
2019-03-23T20:20:37.975Z,114.82
2019-03-23T20:23:04.673Z,109.67
2019-03-23T20:25:31.663Z,109.17
2019-03-23T20:27:58.147Z,99.75
2019-03-23T20:30:24.782Z,97.55
2019-03-23T20:32:51.547Z,93.90
2019-03-23T20:35:18.130Z,95.07
2019-03-23T20:37:44.457Z,100.60
2019-03-23T20:40:13.300Z,101.38
2019-03-23T20:42:39.967Z,100.00
2019-03-23T20:45:08.198Z,104.38
2019-03-23T20:47:34.490Z,99.87
2019-03-23T20:50:01.177Z,106.20
2019-03-23T20:52:27.677Z,115.08
2019-03-23T20:54:54.181Z,119.97
2019-03-23T20:57:24.123Z,118.20
2019-03-23T20:59:49.236Z,111.70
2019-03-23T21:02:15.654Z,107.97
2019-03-23T21:04:42.063Z,110.90
2019-03-23T21:07:08.658Z,112.40
2019-03-23T21:09:35.099Z,104.63
2019-03-23T21:12:01.650Z,104.70
2019-03-23T21:14:28.085Z,96.32
2019-03-23T21:16:54.469Z,86.28
2019-03-23T21:19:20.971Z,82.45
2019-03-23T21:21:47.358Z,83.45
2019-03-23T21:24:13.942Z,82.92
2019-03-23T21:26:40.266Z,76.65
2019-03-23T21:29:06.846Z,74.30
2019-03-23T21:31:33.174Z,65.90
2019-03-23T21:33:59.646Z,71.12
2019-03-23T21:36:26.725Z,68.35
2019-03-23T21:38:53.115Z,71.35
2019-03-23T21:41:19.543Z,72.95
2019-03-23T21:43:46.054Z,81.70
2019-03-23T21:46:12.424Z,85.77
2019-03-23T21:48:38.709Z,93.37
2019-03-23T21:51:05.075Z,94.25
2019-03-23T21:53:31.566Z,77.67
2019-03-23T21:55:57.871Z,67.97
2019-03-23T21:58:24.417Z,66.12
2019-03-23T22:00:50.737Z,66.00
2019-03-23T22:03:17.330Z,68.22
2019-03-23T22:05:43.745Z,71.85
2019-03-23T22:08:10.072Z,67.25
2019-03-23T22:10:36.365Z,70.57
2019-03-23T22:13:03.007Z,69.30
2019-03-23T22:15:33.647Z,58.10
2019-03-23T22:18:00.284Z,60.88
2019-03-23T22:20:26.676Z,62.95
2019-03-23T22:22:53.217Z,66.28
2019-03-23T22:25:19.515Z,61.10
2019-03-23T22:27:45.930Z,69.65
2019-03-23T22:30:13.080Z,59.25
2019-03-23T22:32:39.580Z,58.75
2019-03-23T22:35:06.619Z,65.42
2019-03-23T22:37:33.033Z,56.33
2019-03-23T22:39:59.602Z,57.90
2019-03-23T22:42:26.177Z,58.73
2019-03-23T22:44:52.947Z,60.65
2019-03-23T22:47:19.527Z,64.20
2019-03-23T22:49:45.941Z,60.58
2019-03-23T22:52:12.446Z,65.03
2019-03-23T22:54:39.121Z,57.95
2019-03-23T22:57:05.572Z,54.83
2019-03-23T22:59:32.191Z,54.63
2019-03-23T23:01:58.764Z,51.63
2019-03-23T23:04:25.150Z,54.98
2019-03-23T23:06:51.866Z,58.75
2019-03-23T23:09:18.184Z,55.25
2019-03-23T23:11:44.494Z,52.20
2019-03-23T23:14:11.093Z,49.55
2019-03-23T23:16:37.496Z,49.58
2019-03-23T23:19:03.963Z,51.20
2019-03-23T23:21:30.394Z,51.68
2019-03-23T23:23:56.936Z,50.70
2019-03-23T23:26:23.337Z,42.88
2019-03-23T23:28:49.693Z,43.85
2019-03-23T23:31:16.355Z,44.70
2019-03-23T23:33:43.043Z,48.20
2019-03-23T23:36:09.373Z,49.15
2019-03-23T23:38:35.915Z,51.30
2019-03-23T23:41:02.460Z,51.30
2019-03-23T23:43:28.763Z,52.73
2019-03-23T23:45:55.279Z,52.27
2019-03-23T23:48:21.976Z,55.33
2019-03-23T23:50:48.409Z,54.40
2019-03-23T23:53:15.003Z,51.10
2019-03-23T23:55:41.318Z,48.73
2019-03-23T23:58:07.709Z,49.25
